createdAt,value
2024-02-27T00:02:13.946Z,26.10
2024-02-27T00:04:44.228Z,23.83
2024-02-27T00:07:13.135Z,24.50
2024-02-27T00:09:46.912Z,26.50
2024-02-27T00:12:13.994Z,25.85
2024-02-27T00:14:41.029Z,28.05
2024-02-27T00:17:07.999Z,25.88
2024-02-27T00:19:35.415Z,30.55
2024-02-27T00:22:02.622Z,26.88
2024-02-27T00:24:29.594Z,28.63
2024-02-27T00:26:56.548Z,28.15
2024-02-27T00:29:23.451Z,26.58
2024-02-27T00:31:50.491Z,28.20
2024-02-27T00:34:17.691Z,27.70
2024-02-27T00:36:44.816Z,30.58
2024-02-27T00:39:13.025Z,26.77
2024-02-27T00:41:48.049Z,27.30
2024-02-27T00:44:15.081Z,29.13
2024-02-27T00:46:43.677Z,25.55
2024-02-27T00:49:10.834Z,26.48
2024-02-27T00:51:37.868Z,25.33
2024-02-27T00:54:04.716Z,25.30
2024-02-27T00:56:31.677Z,27.00
2024-02-27T00:58:58.603Z,23.02
2024-02-27T01:01:25.613Z,25.65
2024-02-27T01:03:52.489Z,22.95
2024-02-27T01:06:19.470Z,26.20
2024-02-27T01:08:46.827Z,24.63
2024-02-27T01:11:13.679Z,23.75
2024-02-27T01:13:40.753Z,25.10
2024-02-27T01:16:07.807Z,25.52
2024-02-27T01:18:34.894Z,26.60
2024-02-27T01:21:03.272Z,25.48
2024-02-27T01:23:30.702Z,24.90
2024-02-27T01:25:57.670Z,25.33
2024-02-27T01:28:24.570Z,27.90
2024-02-27T01:30:51.552Z,27.55
2024-02-27T01:33:18.471Z,26.08
2024-02-27T01:35:46.157Z,25.85
2024-02-27T01:38:13.088Z,27.73
2024-02-27T01:40:39.928Z,23.00
2024-02-27T01:43:23.166Z,24.13
2024-02-27T01:46:00.261Z,26.40
2024-02-27T01:48:28.445Z,26.55
2024-02-27T01:50:55.412Z,29.13
2024-02-27T01:53:23.661Z,25.50
2024-02-27T01:55:50.549Z,28.98
2024-02-27T01:58:18.780Z,26.65
2024-02-27T02:00:46.438Z,27.52
2024-02-27T02:03:15.062Z,29.08
2024-02-27T02:05:42.215Z,28.45
2024-02-27T02:08:09.271Z,28.35
2024-02-27T02:10:36.245Z,25.67
2024-02-27T02:13:03.812Z,23.55
2024-02-27T02:15:30.715Z,26.58
2024-02-27T02:17:57.694Z,28.38
2024-02-27T02:20:24.566Z,25.88
2024-02-27T02:22:51.345Z,27.40
2024-02-27T02:25:22.536Z,28.42
2024-02-27T02:27:52.150Z,24.50
2024-02-27T02:30:19.106Z,25.33
2024-02-27T02:32:50.163Z,27.20
2024-02-27T02:35:17.986Z,26.60
2024-02-27T02:37:49.833Z,26.45
2024-02-27T02:40:18.032Z,30.70
2024-02-27T02:42:45.303Z,25.50
2024-02-27T02:45:13.215Z,26.15
2024-02-27T02:47:40.936Z,29.50
2024-02-27T02:50:08.921Z,26.40
2024-02-27T02:52:36.697Z,29.88
2024-02-27T02:55:03.782Z,24.10
2024-02-27T03:01:37.937Z,25.80
2024-02-27T03:04:04.905Z,25.88
2024-02-27T03:06:31.916Z,25.60
2024-02-27T03:08:58.921Z,24.90
2024-02-27T03:11:25.842Z,27.58
2024-02-27T03:13:52.733Z,25.38
2024-02-27T03:16:19.569Z,24.08
2024-02-27T03:18:46.576Z,28.58
2024-02-27T03:21:13.882Z,23.67
2024-02-27T03:23:41.617Z,23.92
2024-02-27T03:26:08.468Z,23.90
2024-02-27T03:28:35.529Z,24.83
2024-02-27T03:31:03.525Z,23.63
2024-02-27T03:33:30.481Z,23.58
2024-02-27T03:35:57.414Z,22.88
2024-02-27T03:38:24.384Z,22.25
2024-02-27T03:40:51.193Z,22.63
2024-02-27T03:43:18.369Z,23.83
2024-02-27T03:45:46.431Z,22.48
2024-02-27T03:48:13.583Z,20.95
2024-02-27T03:50:40.844Z,23.92
2024-02-27T03:53:07.712Z,20.65
2024-02-27T03:55:34.658Z,23.35
2024-02-27T03:58:01.483Z,25.42
2024-02-27T04:00:28.383Z,24.48
2024-02-27T04:02:56.249Z,22.27
2024-02-27T04:05:23.629Z,24.52
2024-02-27T04:07:50.610Z,24.83
2024-02-27T04:10:17.480Z,24.30
2024-02-27T04:12:44.386Z,25.38
2024-02-27T04:15:11.370Z,24.10
2024-02-27T04:20:10.580Z,25.63
2024-02-27T04:22:37.531Z,23.88
2024-02-27T04:25:05.113Z,26.65
2024-02-27T04:27:32.027Z,30.05
2024-02-27T04:29:58.992Z,23.83
2024-02-27T04:32:25.882Z,25.35
2024-02-27T04:34:52.708Z,28.42
2024-02-27T04:37:19.672Z,25.77
2024-02-27T04:39:46.529Z,26.20
2024-02-27T04:42:13.961Z,24.77
2024-02-27T04:44:40.865Z,25.67
2024-02-27T04:47:07.681Z,24.83
2024-02-27T04:49:35.217Z,27.55
2024-02-27T04:52:02.205Z,27.10
2024-02-27T04:54:29.099Z,29.10
2024-02-27T04:56:56.482Z,25.02
2024-02-27T04:59:23.428Z,24.90
2024-02-27T05:01:53.840Z,28.77
2024-02-27T05:04:21.362Z,29.60
2024-02-27T05:06:48.435Z,30.70
2024-02-27T05:09:15.537Z,31.88
2024-02-27T05:11:45.187Z,32.63
2024-02-27T05:14:12.075Z,32.80
2024-02-27T05:16:39.251Z,32.30
2024-02-27T05:19:06.160Z,32.72
2024-02-27T05:21:33.152Z,31.60
2024-02-27T05:24:00.296Z,31.52
2024-02-27T05:26:27.999Z,33.55
2024-02-27T05:28:54.831Z,31.92
2024-02-27T05:31:26.652Z,34.03
2024-02-27T05:33:57.616Z,33.90
2024-02-27T05:36:25.770Z,40.73
2024-02-27T05:38:54.994Z,31.73
2024-02-27T05:41:22.218Z,30.05
2024-02-27T05:43:50.167Z,28.85
2024-02-27T05:46:17.052Z,30.17
2024-02-27T05:48:44.273Z,27.85
2024-02-27T05:51:11.577Z,30.45
2024-02-27T05:53:38.681Z,27.88
2024-02-27T05:56:06.123Z,31.73
2024-02-27T05:58:33.065Z,27.98
2024-02-27T06:01:00.077Z,26.33
2024-02-27T06:03:27.098Z,25.70
2024-02-27T06:05:54.401Z,25.55
2024-02-27T06:08:23.001Z,24.23
2024-02-27T06:10:49.897Z,28.17
2024-02-27T06:13:16.750Z,30.38
2024-02-27T06:15:45.642Z,26.38
2024-02-27T06:18:16.042Z,27.73
2024-02-27T06:21:02.191Z,30.83
2024-02-27T06:23:29.871Z,32.35
2024-02-27T06:25:56.821Z,27.42
2024-02-27T06:28:24.811Z,27.88
2024-02-27T06:30:51.754Z,25.38
2024-02-27T06:33:18.887Z,23.60
2024-02-27T06:35:45.853Z,27.50
2024-02-27T06:38:12.703Z,27.20
2024-02-27T06:40:41.142Z,29.90
2024-02-27T06:43:08.135Z,31.65
2024-02-27T06:45:35.159Z,32.17
2024-02-27T06:48:02.226Z,33.25
2024-02-27T06:50:31.242Z,36.15
2024-02-27T06:53:00.235Z,36.42
2024-02-27T06:55:27.201Z,27.48
2024-02-27T06:57:54.074Z,32.83
2024-02-27T07:00:21.618Z,29.38
2024-02-27T07:02:50.917Z,31.45
2024-02-27T07:05:18.335Z,35.88
2024-02-27T07:07:45.317Z,29.65
2024-02-27T07:10:14.951Z,39.08
2024-02-27T07:12:42.618Z,39.53
2024-02-27T07:15:10.879Z,32.38
2024-02-27T07:17:37.840Z,40.00
2024-02-27T07:20:08.801Z,40.75
2024-02-27T07:22:36.027Z,36.17
2024-02-27T07:25:02.953Z,36.42
2024-02-27T07:27:29.902Z,30.50
2024-02-27T07:29:56.886Z,33.95
2024-02-27T07:32:24.254Z,30.35
2024-02-27T07:34:51.503Z,31.63
2024-02-27T07:37:19.324Z,29.30
2024-02-27T07:39:46.458Z,27.33
2024-02-27T07:42:13.925Z,29.73
2024-02-27T07:44:40.876Z,29.30
2024-02-27T07:47:07.849Z,34.65
2024-02-27T07:49:34.810Z,32.30
2024-02-27T07:52:01.822Z,30.25
2024-02-27T07:54:28.877Z,28.30
2024-02-27T07:56:55.837Z,29.48
2024-02-27T07:59:22.847Z,29.02
2024-02-27T08:01:49.737Z,26.60
2024-02-27T08:04:16.838Z,29.83
2024-02-27T08:06:44.589Z,27.60
2024-02-27T08:09:11.714Z,25.25
2024-02-27T08:11:38.663Z,28.27
2024-02-27T08:14:05.646Z,29.10
2024-02-27T08:16:32.529Z,26.05
2024-02-27T08:19:00.652Z,24.13
2024-02-27T08:21:27.777Z,33.60
2024-02-27T08:23:54.723Z,25.75
2024-02-27T08:26:21.654Z,25.17
2024-02-27T08:28:48.758Z,23.25
2024-02-27T08:31:15.777Z,25.20
2024-02-27T08:33:43.041Z,24.10
2024-02-27T08:36:10.213Z,24.77
2024-02-27T08:38:37.189Z,21.98
2024-02-27T08:41:04.734Z,26.75
2024-02-27T08:43:33.479Z,23.35
2024-02-27T08:46:00.668Z,24.15
2024-02-27T08:48:27.780Z,24.60
2024-02-27T08:50:54.683Z,22.70
2024-02-27T08:53:23.198Z,19.88
2024-02-27T08:55:50.148Z,17.98
2024-02-27T08:58:17.027Z,18.20
2024-02-27T09:00:44.001Z,16.70
2024-02-27T09:03:11.382Z,21.13
2024-02-27T09:05:38.318Z,18.15
2024-02-27T09:08:05.441Z,17.33
2024-02-27T09:10:32.352Z,17.73
2024-02-27T09:12:59.463Z,20.35
2024-02-27T09:15:26.359Z,16.55
2024-02-27T09:17:53.286Z,16.05
2024-02-27T09:20:20.240Z,17.30
2024-02-27T09:22:47.481Z,15.55
2024-02-27T09:25:14.728Z,16.15
2024-02-27T09:27:41.636Z,19.75
2024-02-27T09:30:09.135Z,18.60
2024-02-27T09:32:36.041Z,18.73
2024-02-27T09:35:04.358Z,21.77
2024-02-27T09:37:31.343Z,18.17
2024-02-27T09:39:59.755Z,19.60
2024-02-27T09:42:35.102Z,15.93
2024-02-27T09:45:07.910Z,20.15
2024-02-27T09:50:06.442Z,17.02
2024-02-27T09:52:34.392Z,18.77
2024-02-27T09:55:02.223Z,20.77
2024-02-27T09:57:31.031Z,23.13
2024-02-27T09:59:57.998Z,19.10
2024-02-27T10:02:25.611Z,19.60
2024-02-27T10:04:54.295Z,19.92
2024-02-27T10:07:22.446Z,18.17
2024-02-27T10:09:49.668Z,19.55
2024-02-27T10:12:17.775Z,18.90
2024-02-27T10:14:44.688Z,17.80
2024-02-27T10:17:11.539Z,19.95
2024-02-27T10:19:39.765Z,22.67
2024-02-27T10:22:07.482Z,17.27
2024-02-27T10:24:35.302Z,21.33
2024-02-27T10:27:05.270Z,18.73
2024-02-27T10:29:33.204Z,21.33
2024-02-27T10:32:00.769Z,19.58
2024-02-27T10:34:30.384Z,20.50
2024-02-27T10:36:58.666Z,18.27
2024-02-27T10:39:25.967Z,18.27
2024-02-27T10:41:53.769Z,17.05
2024-02-27T10:44:23.633Z,17.70
2024-02-27T10:46:50.557Z,20.27
2024-02-27T10:49:18.510Z,18.35
2024-02-27T10:51:46.455Z,16.35
2024-02-27T10:54:17.756Z,25.02
2024-02-27T10:56:47.427Z,20.15
2024-02-27T10:59:15.113Z,18.98
2024-02-27T11:01:47.575Z,18.95
2024-02-27T11:04:26.513Z,17.70
2024-02-27T11:06:55.327Z,18.27
2024-02-27T11:09:28.050Z,17.83
2024-02-27T11:11:57.923Z,27.95
2024-02-27T11:14:26.547Z,19.15
2024-02-27T11:17:05.109Z,19.25
2024-02-27T11:19:37.277Z,19.13
2024-02-27T11:22:05.264Z,16.95
2024-02-27T11:24:32.122Z,18.52
2024-02-27T11:26:59.048Z,19.02
2024-02-27T11:29:26.650Z,16.98
2024-02-27T11:31:54.130Z,17.52
2024-02-27T11:34:27.501Z,17.08
2024-02-27T11:37:18.304Z,16.63
2024-02-27T11:39:45.737Z,15.23
2024-02-27T11:42:40.813Z,18.45
2024-02-27T11:45:13.050Z,15.10
2024-02-27T11:50:10.699Z,18.60
2024-02-27T11:52:42.059Z,18.55
2024-02-27T11:55:10.306Z,16.55
2024-02-27T11:57:38.749Z,15.73
2024-02-27T12:00:10.963Z,21.58
2024-02-27T12:02:38.482Z,16.45
2024-02-27T12:05:06.845Z,17.85
2024-02-27T12:07:35.526Z,17.88
2024-02-27T12:10:10.860Z,20.42
2024-02-27T12:12:42.156Z,16.17
2024-02-27T12:15:10.527Z,18.27
2024-02-27T12:17:38.178Z,14.60
2024-02-27T12:20:12.876Z,17.20
2024-02-27T12:22:41.576Z,14.80
2024-02-27T12:25:08.652Z,17.35
2024-02-27T12:27:37.230Z,21.08
2024-02-27T12:30:12.539Z,18.52
2024-02-27T12:32:46.479Z,18.63
2024-02-27T12:35:16.121Z,16.55
2024-02-27T12:37:44.718Z,15.55
2024-02-27T12:40:15.209Z,18.75
2024-02-27T12:42:53.929Z,19.05
2024-02-27T12:45:21.322Z,17.10
2024-02-27T12:47:52.848Z,18.63
2024-02-27T12:50:21.474Z,19.10
2024-02-27T12:53:06.917Z,16.40
2024-02-27T12:55:39.357Z,16.38
2024-02-27T12:58:06.564Z,16.00
2024-02-27T13:00:33.946Z,16.40
2024-02-27T13:03:01.310Z,14.85
2024-02-27T13:05:28.731Z,14.77
2024-02-27T13:07:57.170Z,17.00
2024-02-27T13:10:24.511Z,21.90
2024-02-27T13:13:10.621Z,16.05
2024-02-27T13:15:38.035Z,16.15
2024-02-27T13:18:05.134Z,16.52
2024-02-27T13:20:32.047Z,18.73
2024-02-27T13:23:03.318Z,21.08
2024-02-27T13:25:36.436Z,21.10
2024-02-27T13:28:03.442Z,23.85
2024-02-27T13:30:30.340Z,21.13
2024-02-27T13:32:57.684Z,23.30
2024-02-27T13:35:24.654Z,22.02
2024-02-27T13:37:51.581Z,21.70
2024-02-27T13:40:18.477Z,21.75
2024-02-27T13:42:46.770Z,19.30
2024-02-27T13:45:13.763Z,20.75
2024-02-27T13:47:40.726Z,17.55
2024-02-27T13:50:08.015Z,18.38
2024-02-27T13:52:34.994Z,17.48
2024-02-27T13:55:05.209Z,19.13
2024-02-27T13:57:32.532Z,17.25
2024-02-27T13:59:59.442Z,17.67
2024-02-27T14:02:26.637Z,17.40
2024-02-27T14:04:53.608Z,19.95
2024-02-27T14:07:20.679Z,18.50
2024-02-27T14:09:47.789Z,18.55
2024-02-27T14:12:16.118Z,19.75
2024-02-27T14:14:44.050Z,18.50
2024-02-27T14:17:11.047Z,16.80
2024-02-27T14:19:38.185Z,19.60
2024-02-27T14:22:05.313Z,19.17
2024-02-27T14:24:32.156Z,20.17
2024-02-27T14:26:59.084Z,20.42
2024-02-27T14:29:25.991Z,18.63
2024-02-27T14:31:52.819Z,19.98
2024-02-27T14:34:20.889Z,20.52
2024-02-27T14:36:48.024Z,18.52
2024-02-27T14:39:15.046Z,20.55
2024-02-27T14:41:41.894Z,22.50
2024-02-27T14:44:09.271Z,26.55
2024-02-27T14:46:36.527Z,24.60
2024-02-27T14:49:05.022Z,22.48
2024-02-27T14:51:32.435Z,23.95
2024-02-27T14:53:59.502Z,22.83
2024-02-27T14:56:26.426Z,21.88
2024-02-27T14:58:53.325Z,22.63
2024-02-27T15:01:20.312Z,24.45
2024-02-27T15:03:47.393Z,21.67
2024-02-27T15:06:14.829Z,27.27
2024-02-27T15:08:42.388Z,24.80
2024-02-27T15:11:09.397Z,21.60
2024-02-27T15:13:36.313Z,21.10
2024-02-27T15:16:03.348Z,21.42
2024-02-27T15:18:30.301Z,23.75
2024-02-27T15:20:59.563Z,24.30
2024-02-27T15:23:26.480Z,21.45
2024-02-27T15:25:54.213Z,22.38
2024-02-27T15:28:21.254Z,22.88
2024-02-27T15:30:48.153Z,22.73
2024-02-27T15:33:15.234Z,19.40
2024-02-27T15:35:43.600Z,22.13
2024-02-27T15:38:10.768Z,23.60
2024-02-27T15:40:37.619Z,22.08
2024-02-27T15:43:05.603Z,21.83
2024-02-27T15:45:32.556Z,22.60
2024-02-27T15:47:59.639Z,23.60
2024-02-27T15:50:26.569Z,23.55
2024-02-27T15:52:55.798Z,21.17
2024-02-27T15:55:22.746Z,22.83
2024-02-27T15:57:51.243Z,23.45
2024-02-27T16:00:18.909Z,23.77
2024-02-27T16:02:47.255Z,23.42
2024-02-27T16:05:28.860Z,21.48
2024-02-27T16:07:56.070Z,21.77
2024-02-27T16:10:22.955Z,26.83
2024-02-27T16:12:49.886Z,26.08
2024-02-27T16:15:17.013Z,22.15
2024-02-27T16:17:43.893Z,23.35
2024-02-27T16:20:11.116Z,21.23
2024-02-27T16:22:38.804Z,23.58
2024-02-27T16:25:06.249Z,25.35
2024-02-27T16:27:33.211Z,20.98
2024-02-27T16:30:00.412Z,27.00
2024-02-27T16:32:27.472Z,27.15
2024-02-27T16:34:54.482Z,24.35
2024-02-27T16:37:23.925Z,25.98
2024-02-27T16:39:51.591Z,26.23
2024-02-27T16:42:20.790Z,25.25
2024-02-27T16:44:48.158Z,26.67
2024-02-27T16:47:18.847Z,24.23
2024-02-27T16:49:46.892Z,24.67
2024-02-27T16:52:13.880Z,28.30
2024-02-27T16:54:40.825Z,25.45
2024-02-27T16:57:08.396Z,28.40
2024-02-27T16:59:35.277Z,27.42
2024-02-27T17:02:02.256Z,30.98
2024-02-27T17:04:29.261Z,31.67
2024-02-27T17:06:56.489Z,30.77
2024-02-27T17:09:24.010Z,29.77
2024-02-27T17:11:51.095Z,28.95
2024-02-27T17:14:17.969Z,29.60
2024-02-27T17:16:45.463Z,29.08
2024-02-27T17:19:12.461Z,30.40
2024-02-27T17:21:39.564Z,27.55
2024-02-27T17:24:06.567Z,30.30
2024-02-27T17:26:34.401Z,30.25
2024-02-27T17:29:01.883Z,29.83
2024-02-27T17:31:29.437Z,27.23
2024-02-27T17:33:56.387Z,28.52
2024-02-27T17:36:23.352Z,29.55
2024-02-27T17:38:50.264Z,28.13
2024-02-27T17:41:17.222Z,28.85
2024-02-27T17:43:44.109Z,27.27
2024-02-27T17:46:10.946Z,29.98
2024-02-27T17:48:38.701Z,30.48
2024-02-27T17:51:06.053Z,30.63
2024-02-27T17:53:32.998Z,28.98
2024-02-27T17:55:59.825Z,31.45
2024-02-27T17:58:26.732Z,29.15
2024-02-27T18:00:53.748Z,30.58
2024-02-27T18:03:20.870Z,33.22
2024-02-27T18:05:47.905Z,31.95
2024-02-27T18:08:14.806Z,31.50
2024-02-27T18:10:43.634Z,34.33
2024-02-27T18:13:11.121Z,33.03
2024-02-27T18:15:38.337Z,36.15
2024-02-27T18:18:05.567Z,35.33
2024-02-27T18:20:33.033Z,33.38
2024-02-27T18:23:01.841Z,34.45
2024-02-27T18:25:34.143Z,31.55
2024-02-27T18:28:00.959Z,32.97
2024-02-27T18:30:27.830Z,32.47
2024-02-27T18:32:55.414Z,32.03
2024-02-27T18:35:22.808Z,30.55
2024-02-27T18:37:49.917Z,36.00
2024-02-27T18:40:16.786Z,40.15
2024-02-27T18:42:43.643Z,34.80
2024-02-27T18:45:10.564Z,37.25
2024-02-27T18:47:37.443Z,42.58
2024-02-27T18:50:05.696Z,37.03
2024-02-27T18:52:32.705Z,38.92
2024-02-27T18:54:59.644Z,38.95
2024-02-27T18:57:26.532Z,36.47
2024-02-27T18:59:53.376Z,35.10
2024-02-27T19:02:20.214Z,34.53
2024-02-27T19:04:47.133Z,37.53
2024-02-27T19:07:14.358Z,35.90
2024-02-27T19:09:41.437Z,36.70
2024-02-27T19:12:09.154Z,37.60
2024-02-27T19:14:36.262Z,39.85
2024-02-27T19:17:05.182Z,40.70
2024-02-27T19:19:32.068Z,40.42
2024-02-27T19:21:58.882Z,38.47
2024-02-27T19:24:25.832Z,38.53
2024-02-27T19:26:52.840Z,42.17
2024-02-27T19:29:20.400Z,40.65
2024-02-27T19:31:47.364Z,37.95
2024-02-27T19:34:14.950Z,40.67
2024-02-27T19:36:41.944Z,38.63
2024-02-27T19:39:08.906Z,39.53
2024-02-27T19:41:35.775Z,35.05
2024-02-27T19:44:03.026Z,37.03
2024-02-27T19:46:31.100Z,38.53
2024-02-27T19:48:58.130Z,37.38
2024-02-27T19:51:25.033Z,34.10
2024-02-27T19:53:54.285Z,32.78
2024-02-27T19:56:21.190Z,35.78
2024-02-27T19:58:48.035Z,36.63
2024-02-27T20:01:15.113Z,41.65
2024-02-27T20:03:42.388Z,40.45
2024-02-27T20:06:09.426Z,41.00
2024-02-27T20:08:37.123Z,38.35
2024-02-27T20:11:04.312Z,38.20
2024-02-27T20:13:31.449Z,38.33
2024-02-27T20:15:59.991Z,38.00
2024-02-27T20:18:27.076Z,37.85
2024-02-27T20:20:55.935Z,41.13
2024-02-27T20:23:23.554Z,40.58
2024-02-27T20:25:50.474Z,41.33
2024-02-27T20:28:17.299Z,44.75
2024-02-27T20:30:44.139Z,35.17
2024-02-27T20:33:11.136Z,38.83
2024-02-27T20:35:38.590Z,39.13
2024-02-27T20:38:05.576Z,39.88
2024-02-27T20:40:32.672Z,39.95
2024-02-27T20:42:59.550Z,37.30
2024-02-27T20:45:27.653Z,39.08
2024-02-27T20:47:54.670Z,46.90
2024-02-27T20:50:21.552Z,39.25
2024-02-27T20:52:48.840Z,41.67
2024-02-27T20:55:15.773Z,41.60
2024-02-27T20:57:42.830Z,42.10
2024-02-27T21:00:10.623Z,43.28
2024-02-27T21:02:37.611Z,42.65
2024-02-27T21:05:05.800Z,50.83
2024-02-27T21:07:33.028Z,48.15
2024-02-27T21:09:59.942Z,45.40
2024-02-27T21:12:27.089Z,46.90
2024-02-27T21:14:54.053Z,53.15
2024-02-27T21:17:21.693Z,54.35
2024-02-27T21:19:48.528Z,43.58
2024-02-27T21:22:15.511Z,50.42
2024-02-27T21:24:42.438Z,48.90
2024-02-27T21:27:09.484Z,47.85
2024-02-27T21:29:36.355Z,51.25
2024-02-27T21:32:03.404Z,51.30
2024-02-27T21:34:30.328Z,48.90
2024-02-27T21:36:59.946Z,52.70
2024-02-27T21:39:26.952Z,50.72
2024-02-27T21:41:53.825Z,43.92
2024-02-27T21:44:20.674Z,55.65
2024-02-27T21:46:47.568Z,50.72
2024-02-27T21:49:14.397Z,48.55
2024-02-27T21:51:46.160Z,47.47
2024-02-27T21:54:16.377Z,52.15
2024-02-27T21:56:43.316Z,47.92
2024-02-27T21:59:10.299Z,45.33
2024-02-27T22:01:37.419Z,47.88
2024-02-27T22:04:04.630Z,51.72
2024-02-27T22:06:36.002Z,48.67
2024-02-27T22:09:03.565Z,45.45
2024-02-27T22:11:30.482Z,46.72
2024-02-27T22:13:57.389Z,47.22
2024-02-27T22:16:24.379Z,45.45
2024-02-27T22:18:51.291Z,47.58
2024-02-27T22:21:19.007Z,46.15
2024-02-27T22:23:46.602Z,39.90
2024-02-27T22:26:13.574Z,44.97
2024-02-27T22:28:41.104Z,47.22
2024-02-27T22:31:07.952Z,46.55
2024-02-27T22:33:34.812Z,48.50
2024-02-27T22:36:01.763Z,45.95
2024-02-27T22:38:28.775Z,52.15
2024-02-27T22:40:55.631Z,47.47
2024-02-27T22:43:22.500Z,49.25
2024-02-27T22:45:49.988Z,47.20
2024-02-27T22:48:17.010Z,47.70
2024-02-27T22:50:44.358Z,43.95
2024-02-27T22:53:11.331Z,46.20
2024-02-27T22:55:38.735Z,45.72
2024-02-27T22:58:05.803Z,45.95
2024-02-27T23:00:32.993Z,44.92
2024-02-27T23:03:00.072Z,45.47
2024-02-27T23:05:27.027Z,50.13
2024-02-27T23:07:54.688Z,43.95
2024-02-27T23:10:22.702Z,39.15
2024-02-27T23:12:50.551Z,43.47
2024-02-27T23:15:18.531Z,42.88
2024-02-27T23:17:46.849Z,43.60
2024-02-27T23:20:16.554Z,43.05
2024-02-27T23:22:44.330Z,42.47
2024-02-27T23:25:12.941Z,44.45
2024-02-27T23:27:40.308Z,42.83
2024-02-27T23:30:08.638Z,43.30
2024-02-27T23:32:35.739Z,45.83
2024-02-27T23:35:03.995Z,41.47
2024-02-27T23:37:31.198Z,44.20
2024-02-27T23:39:58.462Z,39.08
2024-02-27T23:42:25.915Z,44.22
2024-02-27T23:44:55.489Z,41.83
2024-02-27T23:47:22.382Z,41.45
2024-02-27T23:49:49.452Z,40.83
2024-02-27T23:52:16.310Z,40.13
2024-02-27T23:54:44.021Z,41.30
2024-02-27T23:57:11.287Z,43.38
2024-02-27T23:59:38.308Z,43.03
